sensor_id;sensor_type;location;lat;lon;timestamp;temperature;humidity
51837;DHT22;38941;53.254;6.600;2023-04-24T00:01:04;11.70;99.90
51837;DHT22;38941;53.254;6.600;2023-04-24T00:03:07;11.60;99.90
51837;DHT22;38941;53.254;6.600;2023-04-24T00:05:08;11.60;99.90
51837;DHT22;38941;53.254;6.600;2023-04-24T00:07:11;11.60;99.90
51837;DHT22;38941;53.254;6.600;2023-04-24T00:09:13;11.60;99.90
51837;DHT22;38941;53.254;6.600;2023-04-24T00:11:14;11.60;99.90
51837;DHT22;38941;53.254;6.600;2023-04-24T00:13:15;11.60;99.90
51837;DHT22;38941;53.254;6.600;2023-04-24T00:15:16;11.60;99.90
51837;DHT22;38941;53.254;6.600;2023-04-24T00:17:16;11.60;99.90
51837;DHT22;38941;53.254;6.600;2023-04-24T00:19:26;11.60;99.90
51837;DHT22;38941;53.254;6.600;2023-04-24T00:21:30;11.60;99.90
51837;DHT22;38941;53.254;6.600;2023-04-24T00:23:33;10.90;99.90
51837;DHT22;38941;53.254;6.600;2023-04-24T00:25:34;11.50;99.90
51837;DHT22;38941;53.254;6.600;2023-04-24T00:27:34;11.50;99.90
51837;DHT22;38941;53.254;6.600;2023-04-24T00:29:39;11.70;99.90
51837;DHT22;38941;53.254;6.600;2023-04-24T00:31:40;11.40;99.90
51837;DHT22;38941;53.254;6.600;2023-04-24T00:33:41;11.40;99.90
51837;DHT22;38941;53.254;6.600;2023-04-24T00:35:42;11.40;99.90
51837;DHT22;38941;53.254;6.600;2023-04-24T00:37:43;11.30;99.90
51837;DHT22;38941;53.254;6.600;2023-04-24T00:39:43;11.40;99.90
51837;DHT22;38941;53.254;6.600;2023-04-24T00:41:46;11.30;99.90
51837;DHT22;38941;53.254;6.600;2023-04-24T00:43:48;11.30;99.90
51837;DHT22;38941;53.254;6.600;2023-04-24T00:45:49;11.30;99.90
51837;DHT22;38941;53.254;6.600;2023-04-24T00:47:52;11.20;99.90
51837;DHT22;38941;53.254;6.600;2023-04-24T00:49:55;11.10;99.90
51837;DHT22;38941;53.254;6.600;2023-04-24T00:51:56;11.10;99.90
51837;DHT22;38941;53.254;6.600;2023-04-24T00:53:57;11.10;99.90
51837;DHT22;38941;53.254;6.600;2023-04-24T00:55:58;11.00;99.90
51837;DHT22;38941;53.254;6.600;2023-04-24T00:57:59;10.90;99.90
51837;DHT22;38941;53.254;6.600;2023-04-24T01:00:00;10.90;99.90
51837;DHT22;38941;53.254;6.600;2023-04-24T01:02:01;10.90;99.90
51837;DHT22;38941;53.254;6.600;2023-04-24T01:04:04;10.90;99.90
51837;DHT22;38941;53.254;6.600;2023-04-24T01:06:06;10.90;99.90
51837;DHT22;38941;53.254;6.600;2023-04-24T01:08:07;10.90;99.90
51837;DHT22;38941;53.254;6.600;2023-04-24T01:10:09;10.80;99.90
51837;DHT22;38941;53.254;6.600;2023-04-24T01:12:10;10.80;99.90
51837;DHT22;38941;53.254;6.600;2023-04-24T01:14:11;10.80;99.90
51837;DHT22;38941;53.254;6.600;2023-04-24T01:16:17;10.70;99.90
51837;DHT22;38941;53.254;6.600;2023-04-24T01:18:20;10.70;99.90
51837;DHT22;38941;53.254;6.600;2023-04-24T01:20:23;10.70;99.90
51837;DHT22;38941;53.254;6.600;2023-04-24T01:22:26;10.60;99.90
51837;DHT22;38941;53.254;6.600;2023-04-24T01:24:28;10.60;99.90
51837;DHT22;38941;53.254;6.600;2023-04-24T01:26:29;10.60;99.90
51837;DHT22;38941;53.254;6.600;2023-04-24T01:28:33;10.60;99.90
51837;DHT22;38941;53.254;6.600;2023-04-24T01:30:35;10.50;99.90
51837;DHT22;38941;53.254;6.600;2023-04-24T01:32:37;10.60;99.90
51837;DHT22;38941;53.254;6.600;2023-04-24T01:34:38;10.50;99.90
51837;DHT22;38941;53.254;6.600;2023-04-24T01:36:39;10.50;99.90
51837;DHT22;38941;53.254;6.600;2023-04-24T01:38:42;10.50;99.90
51837;DHT22;38941;53.254;6.600;2023-04-24T01:40:43;10.50;99.90
51837;DHT22;38941;53.254;6.600;2023-04-24T01:42:45;10.50;99.90
51837;DHT22;38941;53.254;6.600;2023-04-24T01:44:46;10.40;99.90
51837;DHT22;38941;53.254;6.600;2023-04-24T01:46:47;10.40;99.90
51837;DHT22;38941;53.254;6.600;2023-04-24T01:48:48;10.40;99.90
51837;DHT22;38941;53.254;6.600;2023-04-24T01:50:50;10.40;99.90
51837;DHT22;38941;53.254;6.600;2023-04-24T01:52:51;10.30;99.90
51837;DHT22;38941;53.254;6.600;2023-04-24T01:54:52;10.40;99.90
51837;DHT22;38941;53.254;6.600;2023-04-24T01:56:53;10.30;99.90
51837;DHT22;38941;53.254;6.600;2023-04-24T01:58:54;10.30;99.90
51837;DHT22;38941;53.254;6.600;2023-04-24T02:00:58;10.40;99.90
51837;DHT22;38941;53.254;6.600;2023-04-24T02:03:00;10.30;99.90
51837;DHT22;38941;53.254;6.600;2023-04-24T02:05:02;10.30;99.90
51837;DHT22;38941;53.254;6.600;2023-04-24T02:07:03;10.30;99.90
51837;DHT22;38941;53.254;6.600;2023-04-24T02:09:04;10.20;99.90
51837;DHT22;38941;53.254;6.600;2023-04-24T02:11:09;10.20;99.90
51837;DHT22;38941;53.254;6.600;2023-04-24T02:13:10;10.20;99.90
51837;DHT22;38941;53.254;6.600;2023-04-24T02:15:11;10.20;99.90
51837;DHT22;38941;53.254;6.600;2023-04-24T02:17:13;10.20;99.90
51837;DHT22;38941;53.254;6.600;2023-04-24T02:19:15;10.10;99.90
51837;DHT22;38941;53.254;6.600;2023-04-24T02:21:16;10.10;99.90
51837;DHT22;38941;53.254;6.600;2023-04-24T02:23:17;10.10;99.90
51837;DHT22;38941;53.254;6.600;2023-04-24T02:25:18;10.10;99.90
51837;DHT22;38941;53.254;6.600;2023-04-24T02:27:20;10.10;99.90
51837;DHT22;38941;53.254;6.600;2023-04-24T02:29:20;10.10;99.90
51837;DHT22;38941;53.254;6.600;2023-04-24T02:31:22;10.10;99.90
51837;DHT22;38941;53.254;6.600;2023-04-24T02:33:24;10.20;99.90
51837;DHT22;38941;53.254;6.600;2023-04-24T02:35:25;10.10;99.90
51837;DHT22;38941;53.254;6.600;2023-04-24T02:37:26;10.10;99.90
51837;DHT22;38941;53.254;6.600;2023-04-24T02:39:32;10.10;99.90
51837;DHT22;38941;53.254;6.600;2023-04-24T02:41:33;10.20;99.90
51837;DHT22;38941;53.254;6.600;2023-04-24T02:43:34;10.10;99.90
51837;DHT22;38941;53.254;6.600;2023-04-24T02:45:35;10.10;99.90
51837;DHT22;38941;53.254;6.600;2023-04-24T02:47:35;10.10;99.90
51837;DHT22;38941;53.254;6.600;2023-04-24T02:49:36;10.10;99.90
51837;DHT22;38941;53.254;6.600;2023-04-24T02:51:40;10.10;99.90
51837;DHT22;38941;53.254;6.600;2023-04-24T02:53:41;10.10;99.90
51837;DHT22;38941;53.254;6.600;2023-04-24T02:55:42;10.20;99.90
51837;DHT22;38941;53.254;6.600;2023-04-24T02:57:43;10.10;99.90
51837;DHT22;38941;53.254;6.600;2023-04-24T02:59:44;10.10;99.90
51837;DHT22;38941;53.254;6.600;2023-04-24T03:01:44;10.20;99.90
51837;DHT22;38941;53.254;6.600;2023-04-24T03:03:57;10.20;99.90
51837;DHT22;38941;53.254;6.600;2023-04-24T03:05:58;10.10;99.90
51837;DHT22;38941;53.254;6.600;2023-04-24T03:07:59;10.20;99.90
51837;DHT22;38941;53.254;6.600;2023-04-24T03:10:00;10.20;99.90
51837;DHT22;38941;53.254;6.600;2023-04-24T03:12:01;10.10;99.90
51837;DHT22;38941;53.254;6.600;2023-04-24T03:14:02;10.20;99.90
51837;DHT22;38941;53.254;6.600;2023-04-24T03:16:02;10.20;99.90
51837;DHT22;38941;53.254;6.600;2023-04-24T03:18:03;10.20;99.90
51837;DHT22;38941;53.254;6.600;2023-04-24T03:20:05;10.20;99.90
51837;DHT22;38941;53.254;6.600;2023-04-24T03:22:07;10.20;99.90
51837;DHT22;38941;53.254;6.600;2023-04-24T03:24:09;10.20;99.90
51837;DHT22;38941;53.254;6.600;2023-04-24T03:26:10;9.60;99.90
51837;DHT22;38941;53.254;6.600;2023-04-24T03:28:11;10.20;99.90
51837;DHT22;38941;53.254;6.600;2023-04-24T03:30:12;10.20;99.90
51837;DHT22;38941;53.254;6.600;2023-04-24T03:32:14;10.20;99.90
51837;DHT22;38941;53.254;6.600;2023-04-24T03:34:15;10.20;99.90
51837;DHT22;38941;53.254;6.600;2023-04-24T03:36:16;10.20;99.90
51837;DHT22;38941;53.254;6.600;2023-04-24T03:38:16;10.20;99.90
51837;DHT22;38941;53.254;6.600;2023-04-24T03:40:17;10.20;99.90
51837;DHT22;38941;53.254;6.600;2023-04-24T03:42:18;10.20;99.90
51837;DHT22;38941;53.254;6.600;2023-04-24T03:44:19;10.20;99.90
51837;DHT22;38941;53.254;6.600;2023-04-24T03:46:21;10.20;99.90
51837;DHT22;38941;53.254;6.600;2023-04-24T03:48:22;10.20;99.90
51837;DHT22;38941;53.254;6.600;2023-04-24T03:50:23;10.10;99.90
51837;DHT22;38941;53.254;6.600;2023-04-24T03:52:24;10.20;99.90
51837;DHT22;38941;53.254;6.600;2023-04-24T03:54:25;10.30;99.90
51837;DHT22;38941;53.254;6.600;2023-04-24T03:56:26;10.20;99.90
51837;DHT22;38941;53.254;6.600;2023-04-24T03:58:27;10.20;99.90
51837;DHT22;38941;53.254;6.600;2023-04-24T04:00:29;9.50;99.90
51837;DHT22;38941;53.254;6.600;2023-04-24T04:02:32;10.20;99.90
51837;DHT22;38941;53.254;6.600;2023-04-24T04:04:32;10.20;99.90
51837;DHT22;38941;53.254;6.600;2023-04-24T04:06:33;10.20;99.90
51837;DHT22;38941;53.254;6.600;2023-04-24T04:08:35;10.20;99.90
51837;DHT22;38941;53.254;6.600;2023-04-24T04:10:35;10.20;99.90
51837;DHT22;38941;53.254;6.600;2023-04-24T04:12:36;10.20;99.90
51837;DHT22;38941;53.254;6.600;2023-04-24T04:14:38;10.10;99.90
51837;DHT22;38941;53.254;6.600;2023-04-24T04:16:39;10.20;99.90
51837;DHT22;38941;53.254;6.600;2023-04-24T04:18:46;10.10;99.90
51837;DHT22;38941;53.254;6.600;2023-04-24T04:20:46;10.10;99.90
51837;DHT22;38941;53.254;6.600;2023-04-24T04:22:47;10.10;99.90
51837;DHT22;38941;53.254;6.600;2023-04-24T04:24:48;10.10;99.90
51837;DHT22;38941;53.254;6.600;2023-04-24T04:26:51;9.60;99.90
51837;DHT22;38941;53.254;6.600;2023-04-24T04:28:52;10.20;99.90
51837;DHT22;38941;53.254;6.600;2023-04-24T04:30:53;10.10;99.90
51837;DHT22;38941;53.254;6.600;2023-04-24T04:32:55;10.10;99.90
51837;DHT22;38941;53.254;6.600;2023-04-24T04:34:57;10.20;99.90
51837;DHT22;38941;53.254;6.600;2023-04-24T04:36:57;10.20;99.90
51837;DHT22;38941;53.254;6.600;2023-04-24T04:39:01;10.10;99.90
51837;DHT22;38941;53.254;6.600;2023-04-24T04:41:03;10.20;99.90
51837;DHT22;38941;53.254;6.600;2023-04-24T04:43:05;10.20;99.90
51837;DHT22;38941;53.254;6.600;2023-04-24T04:45:10;10.20;99.90
51837;DHT22;38941;53.254;6.600;2023-04-24T04:47:12;10.20;99.90
51837;DHT22;38941;53.254;6.600;2023-04-24T04:49:12;10.10;99.90
51837;DHT22;38941;53.254;6.600;2023-04-24T04:51:14;10.10;99.90
51837;DHT22;38941;53.254;6.600;2023-04-24T04:53:15;10.10;99.90
51837;DHT22;38941;53.254;6.600;2023-04-24T04:55:16;10.10;99.90
51837;DHT22;38941;53.254;6.600;2023-04-24T04:57:17;10.10;99.90
51837;DHT22;38941;53.254;6.600;2023-04-24T04:59:19;10.10;99.90
51837;DHT22;38941;53.254;6.600;2023-04-24T05:01:19;10.10;99.90
51837;DHT22;38941;53.254;6.600;2023-04-24T05:03:23;10.10;99.90
51837;DHT22;38941;53.254;6.600;2023-04-24T05:05:24;10.00;99.90
51837;DHT22;38941;53.254;6.600;2023-04-24T05:07:25;10.00;99.90
51837;DHT22;38941;53.254;6.600;2023-04-24T05:09:25;10.10;99.90
51837;DHT22;38941;53.254;6.600;2023-04-24T05:11:27;10.10;99.90
51837;DHT22;38941;53.254;6.600;2023-04-24T05:13:29;10.10;99.90
51837;DHT22;38941;53.254;6.600;2023-04-24T05:15:31;10.10;99.90
51837;DHT22;38941;53.254;6.600;2023-04-24T05:17:32;10.10;99.90
51837;DHT22;38941;53.254;6.600;2023-04-24T05:19:32;10.20;99.90
51837;DHT22;38941;53.254;6.600;2023-04-24T05:21:36;10.20;99.90
51837;DHT22;38941;53.254;6.600;2023-04-24T05:23:37;10.20;99.90
51837;DHT22;38941;53.254;6.600;2023-04-24T05:25:37;10.20;99.90
51837;DHT22;38941;53.254;6.600;2023-04-24T05:27:40;10.30;99.90
51837;DHT22;38941;53.254;6.600;2023-04-24T05:29:44;10.30;99.90
51837;DHT22;38941;53.254;6.600;2023-04-24T05:31:48;10.30;99.90
51837;DHT22;38941;53.254;6.600;2023-04-24T05:33:50;10.20;99.90
51837;DHT22;38941;53.254;6.600;2023-04-24T05:35:51;10.30;99.90
51837;DHT22;38941;53.254;6.600;2023-04-24T05:37:55;10.30;99.90
51837;DHT22;38941;53.254;6.600;2023-04-24T05:39:56;10.30;99.90
51837;DHT22;38941;53.254;6.600;2023-04-24T05:41:58;10.30;99.90
51837;DHT22;38941;53.254;6.600;2023-04-24T05:43:59;10.30;99.90
51837;DHT22;38941;53.254;6.600;2023-04-24T05:46:01;9.80;99.90
51837;DHT22;38941;53.254;6.600;2023-04-24T05:48:03;10.30;99.90
51837;DHT22;38941;53.254;6.600;2023-04-24T05:50:04;10.40;99.90
51837;DHT22;38941;53.254;6.600;2023-04-24T05:52:05;10.30;99.90
51837;DHT22;38941;53.254;6.600;2023-04-24T05:54:06;10.40;99.90
51837;DHT22;38941;53.254;6.600;2023-04-24T05:56:07;10.40;99.90
51837;DHT22;38941;53.254;6.600;2023-04-24T05:58:09;10.40;99.90
51837;DHT22;38941;53.254;6.600;2023-04-24T06:00:10;10.40;99.90
51837;DHT22;38941;53.254;6.600;2023-04-24T06:02:12;10.40;99.90
51837;DHT22;38941;53.254;6.600;2023-04-24T06:04:13;10.50;99.90
51837;DHT22;38941;53.254;6.600;2023-04-24T06:06:14;10.50;99.90
51837;DHT22;38941;53.254;6.600;2023-04-24T06:08:17;10.50;99.90
51837;DHT22;38941;53.254;6.600;2023-04-24T06:10:19;10.40;99.90
51837;DHT22;38941;53.254;6.600;2023-04-24T06:12:21;10.50;99.90
51837;DHT22;38941;53.254;6.600;2023-04-24T06:14:21;10.40;99.90
51837;DHT22;38941;53.254;6.600;2023-04-24T06:16:23;10.40;99.90
51837;DHT22;38941;53.254;6.600;2023-04-24T06:18:24;10.40;99.90
51837;DHT22;38941;53.254;6.600;2023-04-24T06:20:25;10.40;99.90
51837;DHT22;38941;53.254;6.600;2023-04-24T06:22:27;10.40;99.90
51837;DHT22;38941;53.254;6.600;2023-04-24T06:24:28;10.40;99.90
51837;DHT22;38941;53.254;6.600;2023-04-24T06:26:30;10.30;99.90
51837;DHT22;38941;53.254;6.600;2023-04-24T06:28:31;10.30;99.90
51837;DHT22;38941;53.254;6.600;2023-04-24T06:30:32;10.30;99.90
51837;DHT22;38941;53.254;6.600;2023-04-24T06:32:33;10.30;99.90
51837;DHT22;38941;53.254;6.600;2023-04-24T06:34:35;10.30;99.90
51837;DHT22;38941;53.254;6.600;2023-04-24T06:36:37;10.40;99.90
51837;DHT22;38941;53.254;6.600;2023-04-24T06:38:38;10.30;99.90
51837;DHT22;38941;53.254;6.600;2023-04-24T06:40:39;10.30;99.90
51837;DHT22;38941;53.254;6.600;2023-04-24T06:42:40;10.30;99.90
51837;DHT22;38941;53.254;6.600;2023-04-24T06:44:42;10.30;99.90
51837;DHT22;38941;53.254;6.600;2023-04-24T06:46:45;10.30;99.90
51837;DHT22;38941;53.254;6.600;2023-04-24T06:48:46;10.30;99.90
51837;DHT22;38941;53.254;6.600;2023-04-24T06:50:49;10.30;99.90
51837;DHT22;38941;53.254;6.600;2023-04-24T06:52:50;10.30;99.90
51837;DHT22;38941;53.254;6.600;2023-04-24T06:54:51;10.70;99.90
51837;DHT22;38941;53.254;6.600;2023-04-24T06:56:52;10.40;99.90
51837;DHT22;38941;53.254;6.600;2023-04-24T06:58:55;10.40;99.90
51837;DHT22;38941;53.254;6.600;2023-04-24T07:00:56;10.40;99.90
51837;DHT22;38941;53.254;6.600;2023-04-24T07:02:57;10.40;99.90
51837;DHT22;38941;53.254;6.600;2023-04-24T07:05:00;10.50;99.90
51837;DHT22;38941;53.254;6.600;2023-04-24T07:07:02;10.50;99.90
51837;DHT22;38941;53.254;6.600;2023-04-24T07:09:03;10.50;99.90
51837;DHT22;38941;53.254;6.600;2023-04-24T07:11:05;10.50;99.90
51837;DHT22;38941;53.254;6.600;2023-04-24T07:13:06;10.50;99.90
51837;DHT22;38941;53.254;6.600;2023-04-24T07:15:08;9.70;99.90
51837;DHT22;38941;53.254;6.600;2023-04-24T07:17:09;10.40;99.90
51837;DHT22;38941;53.254;6.600;2023-04-24T07:19:12;10.40;99.90
51837;DHT22;38941;53.254;6.600;2023-04-24T07:21:13;10.40;99.90
51837;DHT22;38941;53.254;6.600;2023-04-24T07:23:14;10.40;99.90
51837;DHT22;38941;53.254;6.600;2023-04-24T07:25:17;10.40;99.90
51837;DHT22;38941;53.254;6.600;2023-04-24T07:27:18;10.40;99.90
51837;DHT22;38941;53.254;6.600;2023-04-24T07:29:22;10.40;99.90
51837;DHT22;38941;53.254;6.600;2023-04-24T07:31:26;10.30;99.90
51837;DHT22;38941;53.254;6.600;2023-04-24T07:33:27;10.30;99.90
51837;DHT22;38941;53.254;6.600;2023-04-24T07:35:28;9.50;99.90
51837;DHT22;38941;53.254;6.600;2023-04-24T07:37:29;10.30;99.90
51837;DHT22;38941;53.254;6.600;2023-04-24T07:39:31;10.40;99.90
51837;DHT22;38941;53.254;6.600;2023-04-24T07:41:33;10.20;99.90
51837;DHT22;38941;53.254;6.600;2023-04-24T07:43:34;10.10;99.90
51837;DHT22;38941;53.254;6.600;2023-04-24T07:45:36;10.10;99.90
51837;DHT22;38941;53.254;6.600;2023-04-24T07:47:38;10.10;99.90
51837;DHT22;38941;53.254;6.600;2023-04-24T07:49:41;9.10;99.90
51837;DHT22;38941;53.254;6.600;2023-04-24T07:51:44;10.10;99.90
51837;DHT22;38941;53.254;6.600;2023-04-24T07:53:48;10.10;99.90
51837;DHT22;38941;53.254;6.600;2023-04-24T07:55:50;10.00;99.90
51837;DHT22;38941;53.254;6.600;2023-04-24T07:57:51;10.10;99.90
51837;DHT22;38941;53.254;6.600;2023-04-24T07:59:52;10.10;99.90
51837;DHT22;38941;53.254;6.600;2023-04-24T08:01:54;10.10;99.90
51837;DHT22;38941;53.254;6.600;2023-04-24T08:03:56;9.90;99.90
51837;DHT22;38941;53.254;6.600;2023-04-24T08:05:58;10.10;99.90
51837;DHT22;38941;53.254;6.600;2023-04-24T08:07:59;10.20;99.90
51837;DHT22;38941;53.254;6.600;2023-04-24T08:10:00;10.20;99.90
51837;DHT22;38941;53.254;6.600;2023-04-24T08:12:01;10.10;99.90
51837;DHT22;38941;53.254;6.600;2023-04-24T08:14:04;10.10;99.90
51837;DHT22;38941;53.254;6.600;2023-04-24T08:16:04;10.10;99.90
51837;DHT22;38941;53.254;6.600;2023-04-24T08:18:05;10.00;99.90
51837;DHT22;38941;53.254;6.600;2023-04-24T08:20:07;10.10;99.90
51837;DHT22;38941;53.254;6.600;2023-04-24T08:22:15;10.00;99.90
51837;DHT22;38941;53.254;6.600;2023-04-24T08:24:16;10.00;99.90
51837;DHT22;38941;53.254;6.600;2023-04-24T08:26:18;9.90;99.90
51837;DHT22;38941;53.254;6.600;2023-04-24T08:28:19;10.00;99.90
51837;DHT22;38941;53.254;6.600;2023-04-24T08:30:20;10.00;99.90
51837;DHT22;38941;53.254;6.600;2023-04-24T08:32:21;10.00;99.90
51837;DHT22;38941;53.254;6.600;2023-04-24T08:34:22;10.00;99.90
51837;DHT22;38941;53.254;6.600;2023-04-24T08:36:23;10.00;99.90
51837;DHT22;38941;53.254;6.600;2023-04-24T08:38:24;10.10;99.90
51837;DHT22;38941;53.254;6.600;2023-04-24T08:40:28;10.00;99.90
51837;DHT22;38941;53.254;6.600;2023-04-24T08:42:30;10.00;99.90
51837;DHT22;38941;53.254;6.600;2023-04-24T08:44:35;10.00;99.90
51837;DHT22;38941;53.254;6.600;2023-04-24T08:46:37;9.90;99.90
51837;DHT22;38941;53.254;6.600;2023-04-24T08:48:38;9.90;99.90
51837;DHT22;38941;53.254;6.600;2023-04-24T08:50:40;9.90;99.90
51837;DHT22;38941;53.254;6.600;2023-04-24T08:52:43;9.90;99.90
51837;DHT22;38941;53.254;6.600;2023-04-24T08:54:46;9.90;99.90
51837;DHT22;38941;53.254;6.600;2023-04-24T08:56:48;9.90;99.90
51837;DHT22;38941;53.254;6.600;2023-04-24T08:58:53;9.80;99.90
51837;DHT22;38941;53.254;6.600;2023-04-24T09:00:55;9.80;99.90
51837;DHT22;38941;53.254;6.600;2023-04-24T09:02:56;9.70;99.90
51837;DHT22;38941;53.254;6.600;2023-04-24T09:04:59;9.70;99.90
51837;DHT22;38941;53.254;6.600;2023-04-24T09:07:00;9.70;99.90
51837;DHT22;38941;53.254;6.600;2023-04-24T09:09:02;9.60;99.90
51837;DHT22;38941;53.254;6.600;2023-04-24T09:11:04;9.50;99.90
51837;DHT22;38941;53.254;6.600;2023-04-24T09:13:06;9.50;99.90
51837;DHT22;38941;53.254;6.600;2023-04-24T09:15:10;9.50;99.90
51837;DHT22;38941;53.254;6.600;2023-04-24T09:17:12;9.50;99.90
51837;DHT22;38941;53.254;6.600;2023-04-24T09:19:12;9.50;99.90
51837;DHT22;38941;53.254;6.600;2023-04-24T09:21:13;9.50;99.90
51837;DHT22;38941;53.254;6.600;2023-04-24T09:23:17;9.50;99.90
51837;DHT22;38941;53.254;6.600;2023-04-24T09:25:18;9.50;99.90
51837;DHT22;38941;53.254;6.600;2023-04-24T09:27:23;8.60;99.90
51837;DHT22;38941;53.254;6.600;2023-04-24T09:29:24;9.60;99.90
51837;DHT22;38941;53.254;6.600;2023-04-24T09:31:28;9.60;99.90
51837;DHT22;38941;53.254;6.600;2023-04-24T09:33:29;9.60;99.90
51837;DHT22;38941;53.254;6.600;2023-04-24T09:35:32;9.60;99.90
51837;DHT22;38941;53.254;6.600;2023-04-24T09:37:36;9.20;99.90
51837;DHT22;38941;53.254;6.600;2023-04-24T09:39:37;9.60;99.90
51837;DHT22;38941;53.254;6.600;2023-04-24T09:41:54;9.60;99.90
51837;DHT22;38941;53.254;6.600;2023-04-24T09:44:20;9.60;99.90
51837;DHT22;38941;53.254;6.600;2023-04-24T09:46:29;9.60;99.90
51837;DHT22;38941;53.254;6.600;2023-04-24T09:48:36;9.60;99.90
51837;DHT22;38941;53.254;6.600;2023-04-24T09:50:38;9.60;99.90
51837;DHT22;38941;53.254;6.600;2023-04-24T09:52:47;9.50;99.90
51837;DHT22;38941;53.254;6.600;2023-04-24T09:54:58;9.50;99.90
51837;DHT22;38941;53.254;6.600;2023-04-24T09:56:58;9.50;99.90
51837;DHT22;38941;53.254;6.600;2023-04-24T09:59:07;9.30;99.90
51837;DHT22;38941;53.254;6.600;2023-04-24T10:01:09;9.50;99.90
51837;DHT22;38941;53.254;6.600;2023-04-24T10:03:10;9.50;99.90
51837;DHT22;38941;53.254;6.600;2023-04-24T10:05:12;9.50;99.90
51837;DHT22;38941;53.254;6.600;2023-04-24T10:07:14;9.50;99.90
51837;DHT22;38941;53.254;6.600;2023-04-24T10:09:16;9.60;99.90
51837;DHT22;38941;53.254;6.600;2023-04-24T10:11:18;9.60;99.90
51837;DHT22;38941;53.254;6.600;2023-04-24T10:13:19;9.60;99.90
51837;DHT22;38941;53.254;6.600;2023-04-24T10:15:21;9.60;99.90
51837;DHT22;38941;53.254;6.600;2023-04-24T10:17:24;9.90;99.90
51837;DHT22;38941;53.254;6.600;2023-04-24T10:19:26;10.00;99.90
51837;DHT22;38941;53.254;6.600;2023-04-24T10:21:27;10.10;99.90
51837;DHT22;38941;53.254;6.600;2023-04-24T10:23:29;10.20;99.90
51837;DHT22;38941;53.254;6.600;2023-04-24T10:25:34;10.30;99.90
51837;DHT22;38941;53.254;6.600;2023-04-24T10:27:36;10.40;99.90
51837;DHT22;38941;53.254;6.600;2023-04-24T10:29:39;10.40;99.90
51837;DHT22;38941;53.254;6.600;2023-04-24T10:31:40;10.50;99.90
51837;DHT22;38941;53.254;6.600;2023-04-24T10:33:43;10.50;99.90
51837;DHT22;38941;53.254;6.600;2023-04-24T10:35:47;10.70;99.90
51837;DHT22;38941;53.254;6.600;2023-04-24T10:37:58;10.80;99.90
51837;DHT22;38941;53.254;6.600;2023-04-24T10:40:00;10.90;99.90
51837;DHT22;38941;53.254;6.600;2023-04-24T10:42:00;11.00;99.90
51837;DHT22;38941;53.254;6.600;2023-04-24T10:44:06;11.10;99.90
51837;DHT22;38941;53.254;6.600;2023-04-24T10:46:07;11.10;99.90
51837;DHT22;38941;53.254;6.600;2023-04-24T10:48:10;11.10;99.90
51837;DHT22;38941;53.254;6.600;2023-04-24T10:50:16;11.10;99.90
51837;DHT22;38941;53.254;6.600;2023-04-24T10:52:17;11.20;99.90
51837;DHT22;38941;53.254;6.600;2023-04-24T10:54:35;11.10;99.90
51837;DHT22;38941;53.254;6.600;2023-04-24T10:56:36;11.10;99.90
51837;DHT22;38941;53.254;6.600;2023-04-24T10:58:45;11.20;99.90
51837;DHT22;38941;53.254;6.600;2023-04-24T11:00:59;11.20;99.90
51837;DHT22;38941;53.254;6.600;2023-04-24T11:03:00;11.30;99.90
51837;DHT22;38941;53.254;6.600;2023-04-24T11:05:03;11.30;99.90
51837;DHT22;38941;53.254;6.600;2023-04-24T11:07:05;11.30;99.90
51837;DHT22;38941;53.254;6.600;2023-04-24T11:09:08;11.30;99.90
51837;DHT22;38941;53.254;6.600;2023-04-24T11:11:18;11.30;99.90
51837;DHT22;38941;53.254;6.600;2023-04-24T11:13:24;11.30;99.90
51837;DHT22;38941;53.254;6.600;2023-04-24T11:15:26;11.40;99.90
51837;DHT22;38941;53.254;6.600;2023-04-24T11:19:34;11.30;99.90
51837;DHT22;38941;53.254;6.600;2023-04-24T11:21:40;11.20;99.90
51837;DHT22;38941;53.254;6.600;2023-04-24T11:23:42;11.20;99.90
51837;DHT22;38941;53.254;6.600;2023-04-24T11:26:10;10.30;99.90
51837;DHT22;38941;53.254;6.600;2023-04-24T11:28:15;10.90;99.90
51837;DHT22;38941;53.254;6.600;2023-04-24T11:30:20;10.80;99.90
51837;DHT22;38941;53.254;6.600;2023-04-24T11:32:27;10.80;99.90
51837;DHT22;38941;53.254;6.600;2023-04-24T11:34:28;10.70;99.90
51837;DHT22;38941;53.254;6.600;2023-04-24T11:36:31;10.70;99.90
51837;DHT22;38941;53.254;6.600;2023-04-24T11:38:34;10.70;99.90
51837;DHT22;38941;53.254;6.600;2023-04-24T11:40:37;10.80;99.90
51837;DHT22;38941;53.254;6.600;2023-04-24T11:42:40;9.80;99.90
51837;DHT22;38941;53.254;6.600;2023-04-24T11:44:42;10.60;99.90
51837;DHT22;38941;53.254;6.600;2023-04-24T11:46:42;10.60;99.90
51837;DHT22;38941;53.254;6.600;2023-04-24T11:48:46;10.50;99.90
51837;DHT22;38941;53.254;6.600;2023-04-24T11:50:47;10.50;99.90
51837;DHT22;38941;53.254;6.600;2023-04-24T11:52:49;10.50;99.90
51837;DHT22;38941;53.254;6.600;2023-04-24T11:54:50;10.50;99.90
51837;DHT22;38941;53.254;6.600;2023-04-24T11:56:52;10.40;99.90
51837;DHT22;38941;53.254;6.600;2023-04-24T11:58:53;10.50;99.90
51837;DHT22;38941;53.254;6.600;2023-04-24T12:00:57;10.40;99.90
51837;DHT22;38941;53.254;6.600;2023-04-24T12:03:09;10.40;99.90
51837;DHT22;38941;53.254;6.600;2023-04-24T12:05:40;10.40;99.90
51837;DHT22;38941;53.254;6.600;2023-04-24T12:07:42;10.40;99.90
51837;DHT22;38941;53.254;6.600;2023-04-24T12:09:47;10.40;99.90
51837;DHT22;38941;53.254;6.600;2023-04-24T12:11:55;10.30;99.90
51837;DHT22;38941;53.254;6.600;2023-04-24T12:13:57;10.20;99.90
51837;DHT22;38941;53.254;6.600;2023-04-24T12:16:01;10.20;99.90
51837;DHT22;38941;53.254;6.600;2023-04-24T12:18:03;10.20;99.90
51837;DHT22;38941;53.254;6.600;2023-04-24T12:20:06;10.10;99.90
51837;DHT22;38941;53.254;6.600;2023-04-24T12:22:07;10.00;99.90
51837;DHT22;38941;53.254;6.600;2023-04-24T12:24:09;10.00;99.90
51837;DHT22;38941;53.254;6.600;2023-04-24T12:26:10;9.30;99.90
51837;DHT22;38941;53.254;6.600;2023-04-24T12:28:13;9.90;99.90
51837;DHT22;38941;53.254;6.600;2023-04-24T12:30:15;10.10;99.90
51837;DHT22;38941;53.254;6.600;2023-04-24T12:32:17;10.40;99.90
51837;DHT22;38941;53.254;6.600;2023-04-24T12:34:21;10.20;99.90
51837;DHT22;38941;53.254;6.600;2023-04-24T12:36:23;10.30;99.90
51837;DHT22;38941;53.254;6.600;2023-04-24T12:38:26;10.40;99.90
51837;DHT22;38941;53.254;6.600;2023-04-24T12:40:27;10.50;99.90
51837;DHT22;38941;53.254;6.600;2023-04-24T12:42:30;10.60;99.90
51837;DHT22;38941;53.254;6.600;2023-04-24T12:44:33;10.80;99.90
51837;DHT22;38941;53.254;6.600;2023-04-24T12:46:36;10.90;99.90
51837;DHT22;38941;53.254;6.600;2023-04-24T12:48:38;11.00;99.90
51837;DHT22;38941;53.254;6.600;2023-04-24T12:50:43;11.00;99.90
51837;DHT22;38941;53.254;6.600;2023-04-24T12:52:44;11.00;99.90
51837;DHT22;38941;53.254;6.600;2023-04-24T12:54:45;11.00;99.90
51837;DHT22;38941;53.254;6.600;2023-04-24T12:56:47;10.10;99.90